sensor_id;sensor_type;location;lat;lon;timestamp;P1;durP1;ratioP1;P2;durP2;ratioP2
60432;SDS011;46286;48.098;11.590;2022-09-13T00:00:41;11.00;;;5.53;;
60432;SDS011;46286;48.098;11.590;2022-09-13T00:03:25;9.57;;;5.07;;
60432;SDS011;46286;48.098;11.590;2022-09-13T00:05:51;14.38;;;5.82;;
60432;SDS011;46286;48.098;11.590;2022-09-13T00:08:17;12.48;;;5.55;;
60432;SDS011;46286;48.098;11.590;2022-09-13T00:10:44;13.45;;;6.15;;
60432;SDS011;46286;48.098;11.590;2022-09-13T00:13:11;10.57;;;5.47;;
60432;SDS011;46286;48.098;11.590;2022-09-13T00:15:41;11.60;;;5.93;;
60432;SDS011;46286;48.098;11.590;2022-09-13T00:18:08;11.52;;;5.60;;
60432;SDS011;46286;48.098;11.590;2022-09-13T00:20:34;11.50;;;6.10;;
60432;SDS011;46286;48.098;11.590;2022-09-13T00:22:59;11.23;;;6.03;;
60432;SDS011;46286;48.098;11.590;2022-09-13T00:25:24;10.25;;;4.75;;
60432;SDS011;46286;48.098;11.590;2022-09-13T00:27:50;11.18;;;5.35;;
60432;SDS011;46286;48.098;11.590;2022-09-13T00:30:15;9.52;;;4.80;;
60432;SDS011;46286;48.098;11.590;2022-09-13T00:32:41;11.45;;;5.60;;
60432;SDS011;46286;48.098;11.590;2022-09-13T00:35:07;9.98;;;5.15;;
60432;SDS011;46286;48.098;11.590;2022-09-13T00:37:32;17.13;;;5.70;;
60432;SDS011;46286;48.098;11.590;2022-09-13T00:39:59;11.02;;;5.18;;
60432;SDS011;46286;48.098;11.590;2022-09-13T00:42:26;14.20;;;5.10;;
60432;SDS011;46286;48.098;11.590;2022-09-13T00:44:57;10.25;;;5.50;;
60432;SDS011;46286;48.098;11.590;2022-09-13T00:52:39;10.00;;;5.20;;
60432;SDS011;46286;48.098;11.590;2022-09-13T00:58:21;8.85;;;4.82;;
60432;SDS011;46286;48.098;11.590;2022-09-13T01:03:18;13.02;;;4.70;;
60432;SDS011;46286;48.098;11.590;2022-09-13T01:05:51;8.77;;;4.70;;
60432;SDS011;46286;48.098;11.590;2022-09-13T01:08:26;10.57;;;5.00;;
60432;SDS011;46286;48.098;11.590;2022-09-13T01:10:55;9.27;;;4.93;;
60432;SDS011;46286;48.098;11.590;2022-09-13T01:13:28;8.85;;;4.65;;
60432;SDS011;46286;48.098;11.590;2022-09-13T01:15:57;7.78;;;4.95;;
60432;SDS011;46286;48.098;11.590;2022-09-13T01:18:23;13.57;;;4.93;;
60432;SDS011;46286;48.098;11.590;2022-09-13T01:26:25;8.95;;;4.60;;
60432;SDS011;46286;48.098;11.590;2022-09-13T01:40:04;10.05;;;4.68;;
60432;SDS011;46286;48.098;11.590;2022-09-13T01:45:31;8.68;;;4.57;;
60432;SDS011;46286;48.098;11.590;2022-09-13T01:48:10;11.15;;;4.70;;
60432;SDS011;46286;48.098;11.590;2022-09-13T01:50:45;16.85;;;4.90;;
60432;SDS011;46286;48.098;11.590;2022-09-13T01:55:58;8.70;;;4.50;;
60432;SDS011;46286;48.098;11.590;2022-09-13T02:03:36;11.05;;;4.47;;
60432;SDS011;46286;48.098;11.590;2022-09-13T02:06:19;9.63;;;4.60;;
60432;SDS011;46286;48.098;11.590;2022-09-13T02:08:52;12.05;;;5.13;;
60432;SDS011;46286;48.098;11.590;2022-09-13T02:11:21;10.65;;;4.55;;
60432;SDS011;46286;48.098;11.590;2022-09-13T02:16:39;12.38;;;5.28;;
60432;SDS011;46286;48.098;11.590;2022-09-13T02:19:16;9.65;;;4.60;;
60432;SDS011;46286;48.098;11.590;2022-09-13T02:21:46;10.48;;;4.50;;
60432;SDS011;46286;48.098;11.590;2022-09-13T02:24:24;8.48;;;4.30;;
60432;SDS011;46286;48.098;11.590;2022-09-13T02:26:53;8.23;;;4.60;;
60432;SDS011;46286;48.098;11.590;2022-09-13T02:29:22;7.10;;;4.13;;
60432;SDS011;46286;48.098;11.590;2022-09-13T02:31:57;7.28;;;4.40;;
60432;SDS011;46286;48.098;11.590;2022-09-13T02:34:33;10.38;;;4.57;;
60432;SDS011;46286;48.098;11.590;2022-09-13T02:37:10;9.82;;;4.45;;
60432;SDS011;46286;48.098;11.590;2022-09-13T02:39:39;11.68;;;4.32;;
60432;SDS011;46286;48.098;11.590;2022-09-13T02:44:45;13.85;;;4.82;;
60432;SDS011;46286;48.098;11.590;2022-09-13T02:47:32;9.73;;;4.65;;
60432;SDS011;46286;48.098;11.590;2022-09-13T02:52:48;8.60;;;4.53;;
60432;SDS011;46286;48.098;11.590;2022-09-13T02:55:21;8.93;;;4.05;;
60432;SDS011;46286;48.098;11.590;2022-09-13T02:58:02;8.07;;;4.80;;
60432;SDS011;46286;48.098;11.590;2022-09-13T03:00:34;7.88;;;4.60;;
60432;SDS011;46286;48.098;11.590;2022-09-13T03:03:02;8.20;;;4.30;;
60432;SDS011;46286;48.098;11.590;2022-09-13T03:05:30;13.32;;;4.50;;
60432;SDS011;46286;48.098;11.590;2022-09-13T03:07:55;10.77;;;4.60;;
60432;SDS011;46286;48.098;11.590;2022-09-13T03:10:22;7.88;;;4.47;;
60432;SDS011;46286;48.098;11.590;2022-09-13T03:13:00;7.65;;;4.10;;
60432;SDS011;46286;48.098;11.590;2022-09-13T03:18:27;6.60;;;3.78;;
60432;SDS011;46286;48.098;11.590;2022-09-13T03:36:20;7.97;;;4.43;;
60432;SDS011;46286;48.098;11.590;2022-09-13T03:41:51;8.38;;;4.25;;
60432;SDS011;46286;48.098;11.590;2022-09-13T03:44:21;7.88;;;4.20;;
60432;SDS011;46286;48.098;11.590;2022-09-13T03:46:50;11.57;;;4.20;;
60432;SDS011;46286;48.098;11.590;2022-09-13T03:49:22;13.00;;;4.45;;
60432;SDS011;46286;48.098;11.590;2022-09-13T03:51:50;8.18;;;4.22;;
60432;SDS011;46286;48.098;11.590;2022-09-13T03:54:18;9.45;;;4.30;;
60432;SDS011;46286;48.098;11.590;2022-09-13T03:59:31;10.07;;;4.25;;
60432;SDS011;46286;48.098;11.590;2022-09-13T04:01:56;8.77;;;4.03;;
60432;SDS011;46286;48.098;11.590;2022-09-13T04:04:22;7.38;;;4.18;;
60432;SDS011;46286;48.098;11.590;2022-09-13T04:06:47;9.25;;;4.05;;
60432;SDS011;46286;48.098;11.590;2022-09-13T04:09:13;7.35;;;4.05;;
60432;SDS011;46286;48.098;11.590;2022-09-13T04:11:38;9.07;;;4.28;;
60432;SDS011;46286;48.098;11.590;2022-09-13T04:14:05;10.95;;;4.32;;
60432;SDS011;46286;48.098;11.590;2022-09-13T04:16:30;7.97;;;4.30;;
60432;SDS011;46286;48.098;11.590;2022-09-13T04:18:56;9.02;;;3.92;;
60432;SDS011;46286;48.098;11.590;2022-09-13T04:21:22;8.15;;;4.20;;
60432;SDS011;46286;48.098;11.590;2022-09-13T04:23:48;13.98;;;4.35;;
60432;SDS011;46286;48.098;11.590;2022-09-13T04:26:14;8.13;;;4.03;;
60432;SDS011;46286;48.098;11.590;2022-09-13T04:28:39;11.07;;;4.50;;
60432;SDS011;46286;48.098;11.590;2022-09-13T04:31:05;7.53;;;3.78;;
60432;SDS011;46286;48.098;11.590;2022-09-13T04:33:30;8.68;;;4.28;;
60432;SDS011;46286;48.098;11.590;2022-09-13T04:35:56;10.88;;;4.00;;
60432;SDS011;46286;48.098;11.590;2022-09-13T04:38:23;6.28;;;3.67;;
60432;SDS011;46286;48.098;11.590;2022-09-13T04:40:55;10.82;;;4.18;;
60432;SDS011;46286;48.098;11.590;2022-09-13T04:43:21;6.45;;;3.85;;
60432;SDS011;46286;48.098;11.590;2022-09-13T04:45:48;10.57;;;4.18;;
60432;SDS011;46286;48.098;11.590;2022-09-13T04:48:14;8.45;;;3.72;;
60432;SDS011;46286;48.098;11.590;2022-09-13T04:50:40;5.97;;;3.67;;
60432;SDS011;46286;48.098;11.590;2022-09-13T04:53:06;7.80;;;3.90;;
60432;SDS011;46286;48.098;11.590;2022-09-13T04:55:31;7.18;;;3.97;;
60432;SDS011;46286;48.098;11.590;2022-09-13T04:57:57;14.80;;;4.20;;
60432;SDS011;46286;48.098;11.590;2022-09-13T05:00:22;9.35;;;4.22;;
60432;SDS011;46286;48.098;11.590;2022-09-13T05:02:54;9.00;;;4.03;;
60432;SDS011;46286;48.098;11.590;2022-09-13T05:05:20;7.05;;;3.83;;
60432;SDS011;46286;48.098;11.590;2022-09-13T05:07:48;8.80;;;4.13;;
60432;SDS011;46286;48.098;11.590;2022-09-13T05:10:15;6.70;;;3.78;;
60432;SDS011;46286;48.098;11.590;2022-09-13T05:12:40;10.18;;;4.43;;
60432;SDS011;46286;48.098;11.590;2022-09-13T05:15:06;9.77;;;4.15;;
60432;SDS011;46286;48.098;11.590;2022-09-13T05:17:32;9.95;;;4.10;;
60432;SDS011;46286;48.098;11.590;2022-09-13T05:19:58;10.05;;;4.82;;
60432;SDS011;46286;48.098;11.590;2022-09-13T05:22:23;7.40;;;4.00;;
60432;SDS011;46286;48.098;11.590;2022-09-13T05:24:49;8.35;;;4.05;;
60432;SDS011;46286;48.098;11.590;2022-09-13T05:27:14;5.63;;;3.53;;
60432;SDS011;46286;48.098;11.590;2022-09-13T05:29:40;8.75;;;4.30;;
60432;SDS011;46286;48.098;11.590;2022-09-13T05:32:05;12.65;;;4.05;;
60432;SDS011;46286;48.098;11.590;2022-09-13T05:34:31;11.30;;;3.88;;
60432;SDS011;46286;48.098;11.590;2022-09-13T05:36:56;6.97;;;3.75;;
60432;SDS011;46286;48.098;11.590;2022-09-13T05:39:22;7.25;;;3.70;;
60432;SDS011;46286;48.098;11.590;2022-09-13T05:41:47;9.75;;;4.18;;
60432;SDS011;46286;48.098;11.590;2022-09-13T05:44:13;6.07;;;3.60;;
60432;SDS011;46286;48.098;11.590;2022-09-13T05:46:39;9.02;;;4.03;;
60432;SDS011;46286;48.098;11.590;2022-09-13T05:49:05;7.97;;;4.00;;
60432;SDS011;46286;48.098;11.590;2022-09-13T05:51:30;10.05;;;3.58;;
60432;SDS011;46286;48.098;11.590;2022-09-13T05:53:56;6.90;;;3.40;;
60432;SDS011;46286;48.098;11.590;2022-09-13T05:56:25;7.50;;;3.22;;
60432;SDS011;46286;48.098;11.590;2022-09-13T05:58:52;7.55;;;3.30;;
60432;SDS011;46286;48.098;11.590;2022-09-13T06:01:20;11.10;;;3.25;;
60432;SDS011;46286;48.098;11.590;2022-09-13T06:03:48;6.00;;;3.45;;
60432;SDS011;46286;48.098;11.590;2022-09-13T06:06:14;7.00;;;3.15;;
60432;SDS011;46286;48.098;11.590;2022-09-13T06:08:40;7.10;;;3.22;;
60432;SDS011;46286;48.098;11.590;2022-09-13T06:11:06;6.15;;;2.97;;
60432;SDS011;46286;48.098;11.590;2022-09-13T06:13:34;5.90;;;3.03;;
60432;SDS011;46286;48.098;11.590;2022-09-13T06:16:00;6.00;;;3.35;;
60432;SDS011;46286;48.098;11.590;2022-09-13T06:18:28;7.95;;;3.33;;
60432;SDS011;46286;48.098;11.590;2022-09-13T06:21:00;6.05;;;2.72;;
60432;SDS011;46286;48.098;11.590;2022-09-13T06:23:27;10.15;;;4.13;;
60432;SDS011;46286;48.098;11.590;2022-09-13T06:26:00;4.25;;;2.50;;
60432;SDS011;46286;48.098;11.590;2022-09-13T06:28:30;5.63;;;2.90;;
60432;SDS011;46286;48.098;11.590;2022-09-13T06:31:03;4.15;;;2.60;;
60432;SDS011;46286;48.098;11.590;2022-09-13T06:36:02;4.68;;;2.33;;
60432;SDS011;46286;48.098;11.590;2022-09-13T06:38:28;9.02;;;2.20;;
60432;SDS011;46286;48.098;11.590;2022-09-13T06:43:34;4.10;;;2.10;;
60432;SDS011;46286;48.098;11.590;2022-09-13T06:46:00;3.67;;;2.20;;
60432;SDS011;46286;48.098;11.590;2022-09-13T06:48:31;3.97;;;2.00;;
60432;SDS011;46286;48.098;11.590;2022-09-13T06:50:58;10.70;;;2.15;;
60432;SDS011;46286;48.098;11.590;2022-09-13T06:53:25;4.22;;;2.10;;
60432;SDS011;46286;48.098;11.590;2022-09-13T06:58:54;2.97;;;1.90;;
60432;SDS011;46286;48.098;11.590;2022-09-13T07:01:25;5.40;;;2.10;;
60432;SDS011;46286;48.098;11.590;2022-09-13T07:03:53;2.55;;;1.63;;
60432;SDS011;46286;48.098;11.590;2022-09-13T07:06:24;2.75;;;1.90;;
60432;SDS011;46286;48.098;11.590;2022-09-13T07:08:53;3.95;;;1.80;;
60432;SDS011;46286;48.098;11.590;2022-09-13T07:11:25;7.40;;;2.00;;
60432;SDS011;46286;48.098;11.590;2022-09-13T07:13:54;3.50;;;1.85;;
60432;SDS011;46286;48.098;11.590;2022-09-13T07:16:23;3.97;;;2.05;;
60432;SDS011;46286;48.098;11.590;2022-09-13T07:19:01;2.78;;;1.83;;
60432;SDS011;46286;48.098;11.590;2022-09-13T07:21:30;2.20;;;1.50;;
60432;SDS011;46286;48.098;11.590;2022-09-13T07:23:56;6.43;;;2.13;;
60432;SDS011;46286;48.098;11.590;2022-09-13T07:26:22;2.28;;;1.60;;
60432;SDS011;46286;48.098;11.590;2022-09-13T07:28:50;3.58;;;1.92;;
60432;SDS011;46286;48.098;11.590;2022-09-13T07:33:47;3.20;;;1.60;;
60432;SDS011;46286;48.098;11.590;2022-09-13T07:36:17;4.35;;;1.80;;
60432;SDS011;46286;48.098;11.590;2022-09-13T07:38:43;4.20;;;1.92;;
60432;SDS011;46286;48.098;11.590;2022-09-13T07:41:13;2.35;;;1.65;;
60432;SDS011;46286;48.098;11.590;2022-09-13T07:43:40;3.05;;;1.70;;
60432;SDS011;46286;48.098;11.590;2022-09-13T07:46:07;2.35;;;1.65;;
60432;SDS011;46286;48.098;11.590;2022-09-13T07:48:35;1.80;;;1.55;;
60432;SDS011;46286;48.098;11.590;2022-09-13T07:51:10;2.92;;;1.88;;
60432;SDS011;46286;48.098;11.590;2022-09-13T07:53:38;3.25;;;1.95;;
60432;SDS011;46286;48.098;11.590;2022-09-13T07:56:06;5.57;;;1.83;;
60432;SDS011;46286;48.098;11.590;2022-09-13T07:58:37;2.63;;;1.80;;
60432;SDS011;46286;48.098;11.590;2022-09-13T08:03:29;4.07;;;1.90;;
60432;SDS011;46286;48.098;11.590;2022-09-13T08:05:55;4.50;;;1.90;;
60432;SDS011;46286;48.098;11.590;2022-09-13T08:08:20;1.92;;;1.60;;
60432;SDS011;46286;48.098;11.590;2022-09-13T08:10:46;4.25;;;1.98;;
60432;SDS011;46286;48.098;11.590;2022-09-13T08:13:14;2.97;;;1.75;;
60432;SDS011;46286;48.098;11.590;2022-09-13T08:15:40;2.45;;;1.67;;
60432;SDS011;46286;48.098;11.590;2022-09-13T08:18:06;3.60;;;1.83;;
60432;SDS011;46286;48.098;11.590;2022-09-13T08:20:34;3.60;;;1.90;;
60432;SDS011;46286;48.098;11.590;2022-09-13T08:23:01;3.92;;;1.98;;
60432;SDS011;46286;48.098;11.590;2022-09-13T08:25:27;5.03;;;1.85;;
60432;SDS011;46286;48.098;11.590;2022-09-13T08:27:52;2.72;;;1.90;;
60432;SDS011;46286;48.098;11.590;2022-09-13T08:30:18;2.58;;;1.90;;
60432;SDS011;46286;48.098;11.590;2022-09-13T08:32:43;3.17;;;1.83;;
60432;SDS011;46286;48.098;11.590;2022-09-13T08:35:08;4.50;;;1.77;;
60432;SDS011;46286;48.098;11.590;2022-09-13T08:37:34;3.47;;;1.75;;
60432;SDS011;46286;48.098;11.590;2022-09-13T08:40:00;3.55;;;2.00;;
60432;SDS011;46286;48.098;11.590;2022-09-13T08:42:31;2.20;;;1.60;;
60432;SDS011;46286;48.098;11.590;2022-09-13T08:45:10;3.42;;;1.92;;
60432;SDS011;46286;48.098;11.590;2022-09-13T08:47:43;3.05;;;2.00;;
60432;SDS011;46286;48.098;11.590;2022-09-13T08:50:22;2.70;;;1.83;;
60432;SDS011;46286;48.098;11.590;2022-09-13T08:53:02;4.53;;;2.28;;
60432;SDS011;46286;48.098;11.590;2022-09-13T08:55:42;3.90;;;2.60;;
60432;SDS011;46286;48.098;11.590;2022-09-13T08:58:29;2.33;;;1.83;;
60432;SDS011;46286;48.098;11.590;2022-09-13T09:01:08;4.35;;;2.28;;
60432;SDS011;46286;48.098;11.590;2022-09-13T09:04:01;3.60;;;2.10;;
60432;SDS011;46286;48.098;11.590;2022-09-13T09:06:40;4.30;;;2.00;;
60432;SDS011;46286;48.098;11.590;2022-09-13T09:09:09;3.55;;;2.20;;
60432;SDS011;46286;48.098;11.590;2022-09-13T09:11:42;5.35;;;2.40;;
60432;SDS011;46286;48.098;11.590;2022-09-13T09:14:20;3.55;;;2.38;;
60432;SDS011;46286;48.098;11.590;2022-09-13T09:17:00;4.07;;;2.20;;
60432;SDS011;46286;48.098;11.590;2022-09-13T09:19:33;4.57;;;2.30;;
60432;SDS011;46286;48.098;11.590;2022-09-13T09:22:05;4.25;;;2.35;;
60432;SDS011;46286;48.098;11.590;2022-09-13T09:24:37;6.93;;;2.42;;
60432;SDS011;46286;48.098;11.590;2022-09-13T09:27:10;4.55;;;2.95;;
60432;SDS011;46286;48.098;11.590;2022-09-13T09:29:39;7.00;;;2.80;;
60432;SDS011;46286;48.098;11.590;2022-09-13T09:37:32;6.80;;;2.60;;
60432;SDS011;46286;48.098;11.590;2022-09-13T09:40:02;5.60;;;2.60;;
60432;SDS011;46286;48.098;11.590;2022-09-13T09:42:40;4.95;;;2.85;;
60432;SDS011;46286;48.098;11.590;2022-09-13T09:45:26;8.50;;;2.63;;
60432;SDS011;46286;48.098;11.590;2022-09-13T09:47:54;5.47;;;2.58;;
60432;SDS011;46286;48.098;11.590;2022-09-13T09:50:24;4.85;;;2.95;;
60432;SDS011;46286;48.098;11.590;2022-09-13T09:52:58;4.97;;;2.83;;
60432;SDS011;46286;48.098;11.590;2022-09-13T09:55:29;8.57;;;2.97;;
60432;SDS011;46286;48.098;11.590;2022-09-13T10:00:21;6.07;;;3.33;;
60432;SDS011;46286;48.098;11.590;2022-09-13T10:02:49;8.05;;;2.90;;
60432;SDS011;46286;48.098;11.590;2022-09-13T10:05:18;10.05;;;2.92;;
60432;SDS011;46286;48.098;11.590;2022-09-13T10:07:50;5.88;;;2.90;;
60432;SDS011;46286;48.098;11.590;2022-09-13T10:13:00;5.03;;;2.60;;
60432;SDS011;46286;48.098;11.590;2022-09-13T10:15:28;7.30;;;2.92;;
60432;SDS011;46286;48.098;11.590;2022-09-13T10:18:02;8.50;;;2.90;;
60432;SDS011;46286;48.098;11.590;2022-09-13T10:20:33;6.95;;;2.88;;
60432;SDS011;46286;48.098;11.590;2022-09-13T10:25:41;4.85;;;2.95;;
60432;SDS011;46286;48.098;11.590;2022-09-13T10:28:13;6.32;;;2.80;;
60432;SDS011;46286;48.098;11.590;2022-09-13T10:30:41;5.70;;;2.88;;
60432;SDS011;46286;48.098;11.590;2022-09-13T10:33:34;4.68;;;2.78;;
60432;SDS011;46286;48.098;11.590;2022-09-13T10:36:20;5.50;;;2.70;;
60432;SDS011;46286;48.098;11.590;2022-09-13T10:38:58;6.13;;;2.92;;
60432;SDS011;46286;48.098;11.590;2022-09-13T10:41:27;4.40;;;2.65;;
60432;SDS011;46286;48.098;11.590;2022-09-13T10:43:59;6.97;;;2.65;;
60432;SDS011;46286;48.098;11.590;2022-09-13T10:46:28;4.95;;;2.90;;
60432;SDS011;46286;48.098;11.590;2022-09-13T10:48:56;6.10;;;2.80;;
60432;SDS011;46286;48.098;11.590;2022-09-13T10:53:49;8.95;;;3.22;;
60432;SDS011;46286;48.098;11.590;2022-09-13T10:56:22;5.20;;;2.60;;
60432;SDS011;46286;48.098;11.590;2022-09-13T10:58:50;6.13;;;3.13;;
60432;SDS011;46286;48.098;11.590;2022-09-13T11:01:21;7.10;;;3.80;;
60432;SDS011;46286;48.098;11.590;2022-09-13T11:06:51;6.72;;;2.70;;
60432;SDS011;46286;48.098;11.590;2022-09-13T11:09:31;5.03;;;2.55;;
60432;SDS011;46286;48.098;11.590;2022-09-13T11:12:22;3.03;;;2.27;;
60432;SDS011;46286;48.098;11.590;2022-09-13T11:31:53;3.70;;;2.20;;
60432;SDS011;46286;48.098;11.590;2022-09-13T11:34:40;6.25;;;2.05;;
60432;SDS011;46286;48.098;11.590;2022-09-13T11:37:33;5.05;;;2.20;;
60432;SDS011;46286;48.098;11.590;2022-09-13T11:45:39;4.40;;;2.20;;
60432;SDS011;46286;48.098;11.590;2022-09-13T11:48:29;4.75;;;2.60;;
60432;SDS011;46286;48.098;11.590;2022-09-13T11:56:50;3.15;;;2.10;;
60432;SDS011;46286;48.098;11.590;2022-09-13T11:59:32;2.80;;;2.00;;
60432;SDS011;46286;48.098;11.590;2022-09-13T12:02:01;5.05;;;1.90;;
60432;SDS011;46286;48.098;11.590;2022-09-13T12:04:37;2.50;;;1.90;;
60432;SDS011;46286;48.098;11.590;2022-09-13T12:07:39;3.35;;;1.95;;
60432;SDS011;46286;48.098;11.590;2022-09-13T12:10:23;3.22;;;1.75;;
60432;SDS011;46286;48.098;11.590;2022-09-13T12:12:54;9.55;;;1.80;;
60432;SDS011;46286;48.098;11.590;2022-09-13T12:15:43;4.00;;;1.92;;
60432;SDS011;46286;48.098;11.590;2022-09-13T12:20:58;3.50;;;2.20;;
60432;SDS011;46286;48.098;11.590;2022-09-13T12:23:35;3.17;;;2.00;;
60432;SDS011;46286;48.098;11.590;2022-09-13T12:26:14;3.75;;;2.28;;
60432;SDS011;46286;48.098;11.590;2022-09-13T12:28:47;3.13;;;1.90;;
60432;SDS011;46286;48.098;11.590;2022-09-13T12:31:21;3.90;;;2.13;;
60432;SDS011;46286;48.098;11.590;2022-09-13T12:33:49;4.50;;;2.55;;
60432;SDS011;46286;48.098;11.590;2022-09-13T12:41:40;6.35;;;1.80;;
60432;SDS011;46286;48.098;11.590;2022-09-13T12:52:30;4.07;;;2.00;;
60432;SDS011;46286;48.098;11.590;2022-09-13T13:00:29;2.33;;;1.85;;
60432;SDS011;46286;48.098;11.590;2022-09-13T13:03:28;3.30;;;1.88;;
60432;SDS011;46286;48.098;11.590;2022-09-13T13:06:12;2.20;;;1.70;;
60432;SDS011;46286;48.098;11.590;2022-09-13T13:08:50;3.63;;;1.95;;
60432;SDS011;46286;48.098;11.590;2022-09-13T13:11:19;3.17;;;1.90;;
60432;SDS011;46286;48.098;11.590;2022-09-13T13:13:56;4.22;;;2.13;;
60432;SDS011;46286;48.098;11.590;2022-09-13T13:16:32;3.60;;;2.00;;
60432;SDS011;46286;48.098;11.590;2022-09-13T13:19:00;4.95;;;2.10;;
60432;SDS011;46286;48.098;11.590;2022-09-13T13:21:37;4.30;;;2.00;;
60432;SDS011;46286;48.098;11.590;2022-09-13T13:29:22;5.25;;;2.20;;
60432;SDS011;46286;48.098;11.590;2022-09-13T13:37:00;4.90;;;1.80;;
60432;SDS011;46286;48.098;11.590;2022-09-13T13:41:55;3.45;;;1.90;;
60432;SDS011;46286;48.098;11.590;2022-09-13T13:54:56;2.95;;;1.80;;
60432;SDS011;46286;48.098;11.590;2022-09-13T13:57:31;4.72;;;1.80;;
60432;SDS011;46286;48.098;11.590;2022-09-13T14:00:05;5.30;;;1.80;;
60432;SDS011;46286;48.098;11.590;2022-09-13T14:02:45;2.67;;;1.92;;
60432;SDS011;46286;48.098;11.590;2022-09-13T14:05:32;3.00;;;1.80;;
60432;SDS011;46286;48.098;11.590;2022-09-13T14:16:50;2.15;;;1.70;;
60432;SDS011;46286;48.098;11.590;2022-09-13T14:18:59;2.28;;;1.70;;
60432;SDS011;46286;48.098;11.590;2022-09-13T14:21:40;3.15;;;1.95;;
60432;SDS011;46286;48.098;11.590;2022-09-13T14:24:22;3.45;;;1.75;;
60432;SDS011;46286;48.098;11.590;2022-09-13T14:26:50;4.20;;;1.80;;
60432;SDS011;46286;48.098;11.590;2022-09-13T14:29:18;3.55;;;1.70;;
60432;SDS011;46286;48.098;11.590;2022-09-13T14:31:46;2.70;;;1.77;;
60432;SDS011;46286;48.098;11.590;2022-09-13T14:34:22;3.72;;;1.95;;
60432;SDS011;46286;48.098;11.590;2022-09-13T14:36:52;3.92;;;1.80;;
60432;SDS011;46286;48.098;11.590;2022-09-13T14:39:19;3.88;;;1.90;;
60432;SDS011;46286;48.098;11.590;2022-09-13T14:41:45;3.08;;;1.70;;
60432;SDS011;46286;48.098;11.590;2022-09-13T14:44:20;4.25;;;1.90;;
60432;SDS011;46286;48.098;11.590;2022-09-13T14:46:50;2.28;;;1.65;;
60432;SDS011;46286;48.098;11.590;2022-09-13T14:49:24;4.57;;;1.90;;
60432;SDS011;46286;48.098;11.590;2022-09-13T14:51:58;5.57;;;2.05;;
60432;SDS011;46286;48.098;11.590;2022-09-13T14:54:47;3.47;;;2.30;;
60432;SDS011;46286;48.098;11.590;2022-09-13T14:57:20;2.28;;;1.80;;
60432;SDS011;46286;48.098;11.590;2022-09-13T14:59:51;2.38;;;1.83;;
60432;SDS011;46286;48.098;11.590;2022-09-13T15:02:25;4.63;;;1.80;;
60432;SDS011;46286;48.098;11.590;2022-09-13T15:04:55;5.93;;;1.70;;
60432;SDS011;46286;48.098;11.590;2022-09-13T15:07:26;3.15;;;1.80;;
60432;SDS011;46286;48.098;11.590;2022-09-13T15:09:55;2.85;;;1.80;;
60432;SDS011;46286;48.098;11.590;2022-09-13T15:13:15;4.50;;;2.03;;
60432;SDS011;46286;48.098;11.590;2022-09-13T15:20:45;3.65;;;2.05;;
60432;SDS011;46286;48.098;11.590;2022-09-13T15:23:15;4.00;;;1.80;;
60432;SDS011;46286;48.098;11.590;2022-09-13T15:25:51;4.78;;;1.98;;
60432;SDS011;46286;48.098;11.590;2022-09-13T15:28:24;3.75;;;2.22;;
60432;SDS011;46286;48.098;11.590;2022-09-13T15:30:56;2.50;;;1.75;;
60432;SDS011;46286;48.098;11.590;2022-09-13T15:33:25;4.65;;;2.05;;
60432;SDS011;46286;48.098;11.590;2022-09-13T15:36:11;4.78;;;1.83;;
60432;SDS011;46286;48.098;11.590;2022-09-13T15:38:54;4.40;;;2.00;;
60432;SDS011;46286;48.098;11.590;2022-09-13T15:41:22;3.45;;;2.10;;
60432;SDS011;46286;48.098;11.590;2022-09-13T15:43:49;5.88;;;1.90;;
60432;SDS011;46286;48.098;11.590;2022-09-13T15:46:15;6.82;;;2.10;;
60432;SDS011;46286;48.098;11.590;2022-09-13T15:48:43;5.75;;;2.20;;
60432;SDS011;46286;48.098;11.590;2022-09-13T15:51:15;5.45;;;1.95;;
60432;SDS011;46286;48.098;11.590;2022-09-13T15:53:42;6.47;;;2.72;;
60432;SDS011;46286;48.098;11.590;2022-09-13T15:56:13;7.15;;;2.10;;
60432;SDS011;46286;48.098;11.590;2022-09-13T15:58:43;3.38;;;1.83;;
60432;SDS011;46286;48.098;11.590;2022-09-13T16:01:11;4.93;;;1.80;;
60432;SDS011;46286;48.098;11.590;2022-09-13T16:03:38;2.80;;;1.75;;
60432;SDS011;46286;48.098;11.590;2022-09-13T16:06:04;3.95;;;1.70;;
60432;SDS011;46286;48.098;11.590;2022-09-13T16:08:33;2.63;;;1.60;;
60432;SDS011;46286;48.098;11.590;2022-09-13T16:11:00;2.88;;;2.00;;
60432;SDS011;46286;48.098;11.590;2022-09-13T16:13:26;4.28;;;1.80;;
60432;SDS011;46286;48.098;11.590;2022-09-13T16:15:51;3.38;;;1.80;;
60432;SDS011;46286;48.098;11.590;2022-09-13T16:18:17;4.50;;;1.83;;
60432;SDS011;46286;48.098;11.590;2022-09-13T16:20:43;5.85;;;1.70;;
60432;SDS011;46286;48.098;11.590;2022-09-13T16:23:09;5.05;;;1.90;;
60432;SDS011;46286;48.098;11.590;2022-09-13T16:25:34;3.83;;;1.90;;
60432;SDS011;46286;48.098;11.590;2022-09-13T16:28:02;3.60;;;1.70;;
60432;SDS011;46286;48.098;11.590;2022-09-13T16:30:28;3.38;;;1.90;;
60432;SDS011;46286;48.098;11.590;2022-09-13T16:32:55;3.00;;;1.80;;
60432;SDS011;46286;48.098;11.590;2022-09-13T16:35:21;6.28;;;1.98;;
60432;SDS011;46286;48.098;11.590;2022-09-13T16:37:48;4.47;;;1.80;;
60432;SDS011;46286;48.098;11.590;2022-09-13T16:40:16;5.05;;;2.00;;
60432;SDS011;46286;48.098;11.590;2022-09-13T16:42:43;3.70;;;1.70;;
60432;SDS011;46286;48.098;11.590;2022-09-13T16:45:09;3.65;;;1.80;;
60432;SDS011;46286;48.098;11.590;2022-09-13T16:47:36;3.10;;;1.85;;
60432;SDS011;46286;48.098;11.590;2022-09-13T16:50:03;2.85;;;1.80;;
60432;SDS011;46286;48.098;11.590;2022-09-13T16:52:30;5.80;;;1.90;;
60432;SDS011;46286;48.098;11.590;2022-09-13T16:54:56;3.70;;;2.00;;
60432;SDS011;46286;48.098;11.590;2022-09-13T16:57:21;2.72;;;1.80;;
60432;SDS011;46286;48.098;11.590;2022-09-13T16:59:48;2.70;;;1.80;;
60432;SDS011;46286;48.098;11.590;2022-09-13T17:02:16;4.25;;;2.30;;
60432;SDS011;46286;48.098;11.590;2022-09-13T17:04:43;3.03;;;1.92;;
60432;SDS011;46286;48.098;11.590;2022-09-13T17:07:09;5.18;;;2.28;;
60432;SDS011;46286;48.098;11.590;2022-09-13T17:09:35;5.25;;;2.22;;
60432;SDS011;46286;48.098;11.590;2022-09-13T17:12:01;4.65;;;2.08;;
60432;SDS011;46286;48.098;11.590;2022-09-13T17:14:30;3.05;;;1.88;;
60432;SDS011;46286;48.098;11.590;2022-09-13T17:16:57;5.20;;;1.90;;
60432;SDS011;46286;48.098;11.590;2022-09-13T17:19:24;5.05;;;1.85;;
60432;SDS011;46286;48.098;11.590;2022-09-13T17:21:54;5.63;;;2.65;;
60432;SDS011;46286;48.098;11.590;2022-09-13T17:24:22;3.72;;;1.90;;
60432;SDS011;46286;48.098;11.590;2022-09-13T17:26:48;4.32;;;2.03;;
60432;SDS011;46286;48.098;11.590;2022-09-13T17:29:14;7.03;;;2.20;;
60432;SDS011;46286;48.098;11.590;2022-09-13T17:31:39;5.00;;;2.10;;
60432;SDS011;46286;48.098;11.590;2022-09-13T17:34:07;7.10;;;2.00;;
60432;SDS011;46286;48.098;11.590;2022-09-13T17:36:34;7.20;;;2.08;;
60432;SDS011;46286;48.098;11.590;2022-09-13T17:39:00;7.78;;;2.10;;
60432;SDS011;46286;48.098;11.590;2022-09-13T17:41:25;4.00;;;2.00;;
60432;SDS011;46286;48.098;11.590;2022-09-13T17:43:51;4.88;;;2.15;;
60432;SDS011;46286;48.098;11.590;2022-09-13T17:46:19;4.85;;;2.45;;
60432;SDS011;46286;48.098;11.590;2022-09-13T17:48:49;3.05;;;2.15;;
60432;SDS011;46286;48.098;11.590;2022-09-13T17:51:18;3.30;;;1.98;;
60432;SDS011;46286;48.098;11.590;2022-09-13T17:53:47;3.60;;;2.25;;
60432;SDS011;46286;48.098;11.590;2022-09-13T17:56:21;3.03;;;2.17;;
60432;SDS011;46286;48.098;11.590;2022-09-13T17:58:53;3.13;;;2.10;;
60432;SDS011;46286;48.098;11.590;2022-09-13T18:01:29;7.45;;;2.53;;